Aviation Digital Data Service (ADDS)

Output produced by METARs form (1302 UTC 14 December 2017)
found at http://aviationweather.gov/adds/metars/
 
KSTS 141253Z AUTO 00000KT 4SM BR SCT002 00/00 A3005 RMK AO2 SLP171 T00000000
KSTS 141120Z 1412/1512 00000KT 2SM BR SCT003 
     TEMPO 1412/1414 1/2SM FG VV002 
     FM141500 00000KT P6SM SKC 
     FM142100 14003KT P6SM SKC 
     FM150300 00000KT P6SM SCT200 
     FM150700 00000KT 1/2SM FG VV002